createdAt,value
2018-10-12T00:00:48.153Z,16.00
2018-10-12T00:01:48.144Z,16.00
2018-10-12T00:02:48.134Z,16.00
2018-10-12T00:03:48.212Z,16.00
2018-10-12T00:04:48.108Z,16.00
2018-10-12T00:05:48.380Z,16.00
2018-10-12T00:06:48.091Z,16.00
2018-10-12T00:07:48.076Z,16.00
2018-10-12T00:08:48.066Z,16.00
2018-10-12T00:09:48.126Z,16.00
2018-10-12T00:10:48.046Z,16.00
2018-10-12T00:11:48.034Z,16.00
2018-10-12T00:12:48.026Z,16.00
2018-10-12T00:13:48.014Z,16.00
2018-10-12T00:14:48.003Z,16.00
2018-10-12T00:15:48.067Z,16.00
2018-10-12T00:16:47.981Z,16.00
2018-10-12T00:17:48.253Z,16.00
2018-10-12T00:18:47.960Z,16.00
2018-10-12T00:19:47.953Z,16.00
2018-10-12T00:20:47.938Z,16.00
2018-10-12T00:21:48.030Z,16.00
2018-10-12T00:22:47.917Z,16.00
2018-10-12T00:23:47.907Z,16.00
2018-10-12T00:24:48.170Z,16.00
2018-10-12T00:25:47.885Z,16.00
2018-10-12T00:26:47.875Z,16.00
2018-10-12T00:27:47.938Z,16.00
2018-10-12T00:28:47.855Z,16.00
2018-10-12T00:29:47.847Z,16.00
2018-10-12T00:30:47.834Z,16.00
2018-10-12T00:31:47.822Z,16.00
2018-10-12T00:32:47.841Z,16.00
2018-10-12T00:33:48.552Z,16.00
2018-10-12T00:34:47.792Z,16.00
2018-10-12T00:35:47.779Z,16.00
2018-10-12T00:36:47.772Z,16.00
2018-10-12T00:37:48.060Z,16.00
2018-10-12T00:38:47.749Z,16.00
2018-10-12T00:39:47.839Z,16.00
2018-10-12T00:40:47.727Z,16.00
2018-10-12T00:41:47.715Z,16.00
2018-10-12T00:42:47.705Z,16.00
2018-10-12T00:43:47.694Z,16.00
2018-10-12T00:44:47.980Z,16.00
2018-10-12T00:45:47.748Z,16.00
2018-10-12T00:46:47.662Z,16.00
2018-10-12T00:47:47.652Z,16.00
2018-10-12T00:48:47.645Z,16.00
2018-10-12T00:49:47.708Z,16.00
2018-10-12T00:50:47.629Z,16.00
2018-10-12T00:51:47.684Z,16.00
2018-10-12T00:52:47.599Z,16.00
2018-10-12T00:53:47.589Z,16.00
2018-10-12T00:54:47.579Z,16.00
2018-10-12T00:55:47.569Z,16.00
2018-10-12T00:56:47.557Z,16.00
2018-10-12T00:57:47.925Z,16.00
2018-10-12T00:58:47.536Z,16.00
2018-10-12T00:59:47.525Z,16.00
2018-10-12T01:00:47.516Z,16.00
2018-10-12T01:01:47.504Z,16.00
2018-10-12T01:02:47.493Z,16.00
2018-10-12T01:03:47.555Z,16.00
2018-10-12T01:04:47.754Z,16.00
2018-10-12T01:05:47.465Z,16.00
2018-10-12T01:06:47.545Z,16.00
2018-10-12T01:07:47.439Z,16.00
2018-10-12T01:08:47.430Z,16.00
2018-10-12T01:09:47.495Z,16.00
2018-10-12T01:10:47.411Z,20.00
2018-10-12T01:11:47.689Z,16.00
2018-10-12T01:12:47.388Z,16.00
2018-10-12T01:13:47.376Z,16.00
2018-10-12T01:14:47.368Z,16.00
2018-10-12T01:15:47.490Z,20.00
2018-10-12T01:16:47.344Z,16.00
2018-10-12T01:17:47.334Z,16.00
2018-10-12T01:18:47.604Z,16.00
2018-10-12T01:19:47.312Z,16.00
2018-10-12T01:20:47.302Z,16.00
2018-10-12T01:21:47.366Z,16.00
2018-10-12T01:22:47.283Z,16.00
2018-10-12T01:23:47.270Z,16.00
2018-10-12T01:24:47.259Z,16.00
2018-10-12T01:25:47.530Z,16.00
2018-10-12T01:26:47.238Z,16.00
2018-10-12T01:27:47.302Z,16.00
2018-10-12T01:28:47.219Z,16.00
2018-10-12T01:29:47.205Z,16.00
2018-10-12T01:30:47.194Z,16.00
2018-10-12T01:31:47.185Z,16.00
2018-10-12T01:32:47.176Z,16.00
2018-10-12T01:33:47.282Z,16.00
2018-10-12T01:34:47.152Z,16.00
2018-10-12T01:35:47.140Z,16.00
2018-10-12T01:36:47.131Z,16.00
2018-10-12T01:37:47.122Z,16.00
2018-10-12T01:38:47.394Z,16.00
2018-10-12T01:39:48.090Z,16.00
2018-10-12T01:40:47.088Z,16.00
2018-10-12T01:41:47.077Z,16.00
2018-10-12T01:42:47.066Z,16.00
2018-10-12T01:43:47.056Z,16.00
2018-10-12T01:44:47.048Z,16.00
2018-10-12T01:45:47.109Z,16.00
2018-10-12T01:46:47.023Z,16.00
2018-10-12T01:47:47.013Z,16.00
2018-10-12T01:48:47.002Z,16.00
2018-10-12T01:49:46.991Z,16.00
2018-10-12T01:50:47.260Z,16.00
2018-10-12T01:51:47.057Z,16.00
2018-10-12T01:52:46.958Z,16.00
2018-10-12T01:53:46.953Z,16.00
2018-10-12T01:54:46.937Z,16.00
2018-10-12T01:55:47.589Z,16.00
2018-10-12T01:56:47.869Z,16.00
2018-10-12T01:57:46.987Z,16.00
2018-10-12T01:58:46.895Z,16.00
2018-10-12T01:59:46.884Z,16.00
2018-10-12T02:02:26.296Z,16.00
2018-10-12T02:03:26.198Z,16.00
2018-10-12T02:04:26.189Z,16.00
2018-10-12T02:05:26.184Z,16.00
2018-10-12T02:06:26.168Z,16.00
2018-10-12T02:07:26.157Z,16.00
2018-10-12T02:08:26.477Z,16.00
2018-10-12T02:09:26.136Z,16.00
2018-10-12T02:10:26.130Z,16.00
2018-10-12T02:11:27.045Z,16.00
2018-10-12T02:12:26.110Z,16.00
2018-10-12T02:13:26.100Z,16.00
2018-10-12T02:14:26.130Z,16.00
2018-10-12T02:15:26.377Z,16.00
2018-10-12T02:16:26.071Z,16.00
2018-10-12T02:17:26.059Z,16.00
2018-10-12T02:18:26.047Z,16.00
2018-10-12T02:19:26.037Z,16.00
2018-10-12T02:20:26.099Z,16.00
2018-10-12T02:21:26.021Z,16.00
2018-10-12T02:22:26.286Z,16.00
2018-10-12T02:23:25.994Z,16.00
2018-10-12T02:24:25.983Z,16.00
2018-10-12T02:25:25.976Z,16.00
2018-10-12T02:26:26.003Z,16.00
2018-10-12T02:27:25.955Z,16.00
2018-10-12T02:28:25.945Z,16.00
2018-10-12T02:29:26.207Z,16.00
2018-10-12T02:30:25.921Z,16.00
2018-10-12T02:31:25.914Z,16.00
2018-10-12T02:32:26.773Z,16.00
2018-10-12T02:33:25.890Z,16.00
2018-10-12T02:34:25.879Z,16.00
2018-10-12T02:35:25.865Z,20.00
2018-10-12T02:36:26.138Z,16.00
2018-10-12T02:37:25.846Z,16.00
2018-10-12T02:38:25.947Z,16.00
2018-10-12T02:39:25.827Z,16.00
2018-10-12T02:40:25.813Z,16.00
2018-10-12T02:41:25.809Z,16.00
2018-10-12T02:42:25.793Z,16.00
2018-10-12T02:43:26.096Z,16.00
2018-10-12T02:44:25.898Z,16.00
2018-10-12T02:45:25.764Z,16.00
2018-10-12T02:46:25.752Z,16.00
2018-10-12T02:47:25.746Z,16.00
2018-10-12T02:48:25.729Z,16.00
2018-10-12T02:49:25.717Z,16.00
2018-10-12T02:50:26.078Z,16.00
2018-10-12T02:51:25.697Z,16.00
2018-10-12T02:52:25.684Z,16.00
2018-10-12T02:53:25.673Z,16.00
2018-10-12T02:54:25.664Z,16.00
2018-10-12T02:55:25.652Z,16.00
2018-10-12T02:56:25.740Z,16.00
2018-10-12T02:57:25.912Z,16.00
2018-10-12T02:58:25.620Z,16.00
2018-10-12T02:59:25.608Z,16.00
2018-10-12T03:00:25.599Z,16.00
2018-10-12T03:01:25.589Z,16.00
2018-10-12T03:02:25.650Z,16.00
2018-10-12T03:03:25.566Z,16.00
2018-10-12T03:04:25.841Z,16.00
2018-10-12T03:05:25.544Z,16.00
2018-10-12T03:06:25.535Z,16.00
2018-10-12T03:07:25.523Z,16.00
2018-10-12T03:08:25.585Z,16.00
2018-10-12T03:09:25.503Z,16.00
2018-10-12T03:10:25.491Z,16.00
2018-10-12T03:11:25.761Z,16.00
2018-10-12T03:12:25.473Z,16.00
2018-10-12T03:13:25.459Z,16.00
2018-10-12T03:14:25.791Z,16.00
2018-10-12T03:15:25.437Z,16.00
2018-10-12T03:16:25.428Z,16.00
2018-10-12T03:17:25.415Z,16.00
2018-10-12T03:18:25.712Z,16.00
2018-10-12T03:19:25.397Z,16.00
2018-10-12T03:20:25.456Z,16.00
2018-10-12T03:21:25.377Z,16.00
2018-10-12T03:22:25.363Z,16.00
2018-10-12T03:23:25.352Z,16.00
2018-10-12T03:24:25.341Z,16.00
2018-10-12T03:25:25.610Z,16.00
2018-10-12T03:26:25.393Z,16.00
2018-10-12T03:27:25.310Z,16.00
2018-10-12T03:28:25.299Z,16.00
2018-10-12T03:29:25.289Z,16.00
2018-10-12T03:30:25.276Z,16.00
2018-10-12T03:31:25.265Z,16.00
2018-10-12T03:32:25.419Z,16.00
2018-10-12T03:33:25.247Z,16.00
2018-10-12T03:34:25.234Z,16.00
2018-10-12T03:35:25.228Z,16.00
2018-10-12T03:36:25.217Z,16.00
2018-10-12T03:37:25.271Z,16.00
2018-10-12T03:38:25.541Z,16.00
2018-10-12T03:39:25.180Z,16.00
2018-10-12T03:40:25.169Z,16.00
2018-10-12T03:41:25.157Z,16.00
2018-10-12T03:42:25.146Z,16.00
2018-10-12T03:43:25.140Z,16.00
2018-10-12T03:44:25.222Z,16.00
2018-10-12T03:45:25.398Z,16.00
2018-10-12T03:46:25.103Z,16.00
2018-10-12T03:47:25.095Z,16.00
2018-10-12T03:48:25.083Z,16.00
2018-10-12T03:49:25.071Z,16.00
2018-10-12T03:50:25.145Z,16.00
2018-10-12T03:51:25.050Z,16.00
2018-10-12T03:52:25.408Z,20.00
2018-10-12T03:53:25.029Z,16.00
2018-10-12T03:54:25.018Z,16.00
2018-10-12T03:55:25.006Z,16.00
2018-10-12T03:56:25.071Z,16.00
2018-10-12T03:57:24.984Z,16.00
2018-10-12T03:58:24.976Z,16.00
2018-10-12T03:59:25.406Z,16.00
2018-10-12T04:00:24.953Z,16.00
2018-10-12T04:01:24.941Z,0.00
2018-10-12T04:02:25.006Z,4.00
2018-10-12T04:03:24.920Z,0.00
2018-10-12T04:04:24.914Z,4.00
2018-10-12T04:05:24.898Z,0.00
2018-10-12T04:06:25.218Z,0.00
2018-10-12T04:07:24.879Z,0.00
2018-10-12T04:08:24.964Z,4.00
2018-10-12T04:09:24.857Z,4.00
2018-10-12T04:10:24.848Z,4.00
2018-10-12T04:11:24.833Z,4.00
2018-10-12T04:12:24.883Z,4.00
2018-10-12T04:13:25.247Z,0.00
2018-10-12T04:14:25.570Z,4.00
2018-10-12T04:15:24.791Z,4.00
2018-10-12T04:16:24.780Z,4.00
2018-10-12T04:17:24.768Z,4.00
2018-10-12T04:18:24.758Z,4.00
2018-10-12T04:19:24.754Z,4.00
2018-10-12T04:20:25.307Z,4.00
2018-10-12T04:21:24.737Z,0.00
2018-10-12T04:22:24.723Z,4.00
2018-10-12T04:23:24.720Z,4.00
2018-10-12T04:24:24.693Z,0.00
2018-10-12T04:25:24.683Z,4.00
2018-10-12T04:26:24.765Z,4.00
2018-10-12T04:27:25.082Z,4.00
2018-10-12T04:28:24.665Z,4.00
2018-10-12T04:29:24.717Z,4.00
2018-10-12T04:30:24.655Z,4.00
2018-10-12T04:31:24.667Z,0.00
2018-10-12T04:32:24.762Z,4.00
2018-10-12T04:33:24.598Z,4.00
2018-10-12T04:34:24.902Z,4.00
2018-10-12T04:35:24.575Z,4.00
2018-10-12T04:36:24.564Z,4.00
2018-10-12T04:37:24.552Z,4.00
2018-10-12T04:38:24.617Z,4.00
2018-10-12T04:39:24.530Z,4.00
2018-10-12T04:40:24.521Z,4.00
2018-10-12T04:41:24.932Z,4.00
2018-10-12T04:42:24.498Z,4.00
2018-10-12T04:43:24.487Z,4.00
2018-10-12T04:44:24.619Z,4.00
2018-10-12T04:45:24.466Z,4.00
2018-10-12T04:46:24.455Z,4.00
2018-10-12T04:47:24.522Z,4.00
2018-10-12T04:48:24.747Z,4.00
2018-10-12T04:49:24.424Z,4.00
2018-10-12T04:50:24.481Z,4.00
2018-10-12T04:51:24.401Z,4.00
2018-10-12T04:52:24.389Z,4.00
2018-10-12T04:53:24.394Z,4.00
2018-10-12T04:54:24.368Z,4.00
2018-10-12T04:55:24.782Z,4.00
2018-10-12T04:56:24.422Z,4.00
2018-10-12T04:57:24.337Z,4.00
2018-10-12T04:58:24.324Z,4.00
2018-10-12T04:59:24.332Z,4.00
2018-10-12T05:00:24.302Z,4.00
2018-10-12T05:01:24.291Z,4.00
2018-10-12T05:02:24.365Z,4.00
2018-10-12T05:03:24.269Z,4.00
2018-10-12T05:04:24.260Z,4.00
2018-10-12T05:05:24.247Z,4.00
2018-10-12T05:06:24.235Z,4.00
2018-10-12T05:07:24.226Z,4.00
2018-10-12T05:08:24.616Z,4.00
2018-10-12T05:09:24.206Z,4.00
2018-10-12T05:10:24.193Z,0.00
2018-10-12T05:11:24.182Z,0.00
2018-10-12T05:12:24.172Z,4.00
2018-10-12T05:13:24.244Z,4.00
2018-10-12T05:14:24.432Z,4.00
2018-10-12T05:15:24.198Z,4.00
2018-10-12T05:16:24.210Z,4.00
2018-10-12T05:17:25.041Z,8.00
2018-10-12T05:18:25.047Z,4.00
2018-10-12T05:19:24.101Z,4.00
2018-10-12T05:20:24.807Z,8.00
2018-10-12T05:21:24.090Z,8.00
2018-10-12T05:22:24.073Z,8.00
2018-10-12T05:23:24.079Z,12.00
2018-10-12T05:24:24.061Z,12.00
2018-10-12T05:25:24.042Z,16.00
2018-10-12T05:26:24.284Z,20.00
2018-10-12T05:27:24.356Z,20.00
2018-10-12T05:28:24.061Z,24.00
2018-10-12T05:29:24.047Z,28.00
2018-10-12T05:30:23.979Z,32.00
2018-10-12T05:31:23.966Z,36.00
2018-10-12T05:32:24.030Z,40.00
2018-10-12T05:33:23.944Z,44.00
2018-10-12T05:34:24.371Z,52.00
2018-10-12T05:35:23.923Z,60.00
2018-10-12T05:36:23.911Z,68.00
2018-10-12T05:37:23.977Z,72.00
2018-10-12T05:38:24.173Z,80.00
2018-10-12T05:39:23.879Z,88.00
2018-10-12T05:40:23.868Z,100.00
2018-10-12T05:41:24.193Z,112.00
2018-10-12T05:42:23.847Z,120.00
2018-10-12T05:43:23.914Z,132.00
2018-10-12T05:44:24.561Z,148.00
2018-10-12T05:45:23.830Z,156.00
2018-10-12T05:46:23.860Z,172.00
2018-10-12T05:47:23.795Z,188.00
2018-10-12T05:48:24.194Z,204.00
2018-10-12T05:49:23.776Z,220.00
2018-10-12T05:50:24.069Z,240.00
2018-10-12T05:51:23.815Z,260.00
2018-10-12T05:52:23.913Z,280.00
2018-10-12T05:53:23.792Z,300.00
2018-10-12T05:54:23.841Z,320.00
2018-10-12T05:55:24.316Z,340.00
2018-10-12T05:56:23.843Z,356.00
2018-10-12T05:57:23.703Z,380.00
2018-10-12T05:58:23.680Z,400.00
2018-10-12T05:59:23.741Z,420.00
2018-10-12T06:00:23.667Z,440.00
2018-10-12T06:01:23.709Z,464.00
2018-10-12T06:02:23.766Z,488.00
2018-10-12T06:03:23.625Z,508.00
2018-10-12T06:04:23.612Z,528.00
2018-10-12T06:05:23.599Z,552.00
2018-10-12T06:06:23.589Z,572.00
2018-10-12T06:07:23.578Z,592.00
2018-10-12T06:08:23.636Z,620.00
2018-10-12T06:09:23.583Z,640.00
2018-10-12T06:10:23.551Z,660.00
2018-10-12T06:11:23.600Z,684.00
2018-10-12T06:12:23.523Z,704.00
2018-10-12T06:13:23.512Z,728.00
2018-10-12T06:14:24.532Z,752.00
2018-10-12T06:15:23.553Z,772.00
2018-10-12T06:16:23.479Z,796.00
2018-10-12T06:17:23.470Z,816.00
2018-10-12T06:18:23.458Z,844.00
2018-10-12T06:19:23.446Z,864.00
2018-10-12T06:20:23.507Z,884.00
2018-10-12T06:21:23.970Z,908.00
2018-10-12T06:22:23.411Z,924.00
2018-10-12T06:23:23.403Z,944.00
2018-10-12T06:24:23.393Z,964.00
2018-10-12T06:25:23.394Z,984.00
2018-10-12T06:26:23.455Z,1008.00
2018-10-12T06:27:23.361Z,1024.00
2018-10-12T06:28:23.872Z,1048.00
2018-10-12T06:29:23.342Z,1068.00
2018-10-12T06:30:23.326Z,1088.00
2018-10-12T06:31:23.317Z,1112.00
2018-10-12T06:32:23.448Z,1132.00
2018-10-12T06:33:23.294Z,1152.00
2018-10-12T06:34:23.288Z,1172.00
2018-10-12T06:35:24.485Z,1192.00
2018-10-12T06:36:23.265Z,1208.00
2018-10-12T06:37:23.252Z,1228.00
2018-10-12T06:38:23.316Z,1248.00
2018-10-12T06:39:23.229Z,1272.00
2018-10-12T06:40:23.217Z,1296.00
2018-10-12T06:41:23.286Z,1292.00
2018-10-12T06:42:23.491Z,1336.00
2018-10-12T06:43:23.185Z,1356.00
2018-10-12T06:44:23.378Z,1380.00
2018-10-12T06:45:23.162Z,1400.00
2018-10-12T06:46:23.183Z,1416.00
2018-10-12T06:47:23.142Z,1444.00
2018-10-12T06:48:24.028Z,1460.00
2018-10-12T06:49:25.348Z,1492.00
2018-10-12T06:50:23.193Z,1528.00
2018-10-12T06:51:24.031Z,1556.00
2018-10-12T06:52:24.030Z,1584.00
2018-10-12T06:53:28.027Z,1616.00
2018-10-12T06:54:24.029Z,1640.00
2018-10-12T06:55:25.026Z,1668.00
2018-10-12T06:56:23.705Z,1692.00
2018-10-12T06:57:23.033Z,1724.00
2018-10-12T06:58:23.021Z,1752.00
2018-10-12T06:59:23.015Z,1776.00
2018-10-12T07:00:23.538Z,1800.00
2018-10-12T07:01:23.527Z,1832.00
2018-10-12T07:02:23.507Z,1856.00
2018-10-12T07:03:23.528Z,1884.00
2018-10-12T07:04:23.566Z,1916.00
2018-10-12T07:05:22.993Z,1948.00
2018-10-12T07:06:22.999Z,1976.00
2018-10-12T07:07:23.676Z,2004.00
2018-10-12T07:08:23.012Z,2036.00
2018-10-12T07:09:22.902Z,2072.00
2018-10-12T07:10:23.489Z,2100.00
2018-10-12T07:11:22.880Z,2144.00
2018-10-12T07:12:22.947Z,2168.00
2018-10-12T07:13:23.488Z,2236.00
2018-10-12T07:14:23.352Z,2608.00
2018-10-12T07:15:22.839Z,4164.00
2018-10-12T07:16:23.455Z,7004.00
2018-10-12T07:17:22.893Z,9828.00
2018-10-12T07:18:23.076Z,13244.00
2018-10-12T07:19:23.344Z,18816.00
2018-10-12T07:20:25.331Z,20672.00
2018-10-12T07:21:22.991Z,20960.00
2018-10-12T07:22:22.817Z,23680.00
2018-10-12T07:23:22.777Z,26304.00
2018-10-12T07:24:22.743Z,24512.00
2018-10-12T07:25:22.791Z,23776.00
2018-10-12T07:26:23.278Z,27712.00
2018-10-12T07:27:22.711Z,34720.00
2018-10-12T07:28:22.715Z,34176.00
2018-10-12T07:29:22.732Z,35744.00
2018-10-12T07:30:22.683Z,46720.00
2018-10-12T07:31:22.729Z,54624.00
2018-10-12T07:32:23.258Z,46816.00
2018-10-12T07:33:22.665Z,31552.00
2018-10-12T07:34:22.637Z,23168.00
2018-10-12T07:35:22.627Z,22272.00
2018-10-12T07:36:22.620Z,21024.00
2018-10-12T07:37:22.934Z,19776.00
2018-10-12T07:38:22.748Z,19328.00
2018-10-12T07:39:22.583Z,19232.00
2018-10-12T07:40:22.574Z,19776.00
2018-10-12T07:41:22.598Z,19264.00
2018-10-12T07:42:22.640Z,18304.00
2018-10-12T07:43:22.544Z,17600.00
2018-10-12T07:44:22.777Z,17440.00
2018-10-12T07:45:22.524Z,17184.00
2018-10-12T07:46:22.619Z,16736.00
2018-10-12T07:47:22.680Z,16000.00
2018-10-12T07:48:22.514Z,14800.00
2018-10-12T07:49:22.828Z,13884.00
2018-10-12T07:50:22.820Z,13060.00
2018-10-12T07:51:22.539Z,12076.00
2018-10-12T07:52:22.557Z,9204.00
2018-10-12T07:53:22.623Z,5636.00
2018-10-12T07:54:22.585Z,3856.00
2018-10-12T07:55:22.519Z,3696.00
2018-10-12T07:56:22.582Z,3576.00
2018-10-12T07:57:22.838Z,3460.00
2018-10-12T07:58:22.457Z,3388.00
2018-10-12T07:59:22.459Z,3320.00
2018-10-12T08:00:22.447Z,3116.00
2018-10-12T08:01:22.376Z,3140.00
2018-10-12T08:02:22.560Z,3100.00
2018-10-12T08:03:22.387Z,3100.00
2018-10-12T08:04:22.806Z,3040.00
2018-10-12T08:05:22.311Z,2980.00
2018-10-12T08:06:22.359Z,2864.00
2018-10-12T08:07:22.290Z,2856.00
2018-10-12T08:08:22.511Z,2888.00
2018-10-12T08:09:22.270Z,2872.00
2018-10-12T08:10:22.265Z,2880.00
2018-10-12T08:11:22.248Z,2880.00
2018-10-12T08:12:22.238Z,2896.00
2018-10-12T08:13:22.237Z,2892.00
2018-10-12T08:14:24.279Z,2900.00
2018-10-12T08:15:22.281Z,2876.00
2018-10-12T08:16:22.681Z,2880.00
2018-10-12T08:17:22.192Z,2920.00
2018-10-12T08:18:22.253Z,2980.00
2018-10-12T08:19:23.159Z,3012.00
2018-10-12T08:20:22.437Z,3056.00
2018-10-12T08:21:23.168Z,3120.00
2018-10-12T08:22:23.223Z,3184.00
2018-10-12T08:23:25.506Z,3240.00
2018-10-12T08:24:23.131Z,3288.00
2018-10-12T08:25:23.037Z,3336.00
2018-10-12T08:26:23.029Z,3388.00
2018-10-12T08:27:22.080Z,3340.00
2018-10-12T08:28:23.291Z,3428.00
2018-10-12T08:29:24.129Z,3344.00
2018-10-12T08:30:24.131Z,3656.00
2018-10-12T08:31:22.098Z,3672.00
2018-10-12T08:32:25.060Z,3656.00
2018-10-12T08:33:22.534Z,3656.00
2018-10-12T08:34:22.137Z,3628.00
2018-10-12T08:35:22.583Z,3620.00
2018-10-12T08:36:22.785Z,3608.00
2018-10-12T08:37:22.065Z,3568.00
2018-10-12T08:38:23.122Z,3540.00
2018-10-12T08:39:22.649Z,3576.00
2018-10-12T08:40:22.643Z,3648.00
2018-10-12T08:41:22.261Z,3748.00
2018-10-12T08:42:23.102Z,3780.00
2018-10-12T08:43:22.532Z,3848.00
2018-10-12T08:44:22.176Z,3904.00
2018-10-12T08:45:21.948Z,3932.00
2018-10-12T08:46:21.892Z,3948.00
2018-10-12T08:47:21.904Z,3992.00
2018-10-12T08:48:21.911Z,3980.00
2018-10-12T08:49:22.280Z,4036.00
2018-10-12T08:50:23.493Z,3896.00
2018-10-12T08:51:21.864Z,3992.00
2018-10-12T08:52:21.817Z,3988.00
2018-10-12T08:53:21.809Z,4104.00
2018-10-12T08:54:21.801Z,4180.00
2018-10-12T08:55:21.801Z,4424.00
2018-10-12T08:56:22.237Z,4404.00
2018-10-12T08:57:21.800Z,4380.00
2018-10-12T08:58:21.754Z,4368.00
2018-10-12T08:59:21.859Z,4380.00
2018-10-12T09:00:21.929Z,4288.00
2018-10-12T09:01:22.174Z,4264.00
2018-10-12T09:02:22.906Z,4284.00
2018-10-12T09:03:21.908Z,4292.00
2018-10-12T09:04:21.795Z,4216.00
2018-10-12T09:05:21.683Z,4216.00
2018-10-12T09:06:21.673Z,4376.00
2018-10-12T09:07:21.661Z,4476.00
2018-10-12T09:08:23.133Z,4572.00
2018-10-12T09:09:21.734Z,4736.00
2018-10-12T09:10:21.629Z,4940.00
2018-10-12T09:11:21.761Z,5032.00
2018-10-12T09:12:21.757Z,5152.00
2018-10-12T09:13:21.710Z,5216.00
2018-10-12T09:14:22.651Z,5268.00
2018-10-12T09:15:21.971Z,5376.00
2018-10-12T09:16:21.696Z,5352.00
2018-10-12T09:17:21.559Z,5388.00
2018-10-12T09:18:21.631Z,5376.00
2018-10-12T09:19:21.577Z,5300.00
2018-10-12T09:20:22.073Z,4984.00
2018-10-12T09:21:21.732Z,5104.00
2018-10-12T09:22:21.801Z,5064.00
2018-10-12T09:23:21.563Z,4692.00
2018-10-12T09:24:21.552Z,4684.00
2018-10-12T09:25:21.502Z,4848.00
2018-10-12T09:26:21.899Z,4824.00
2018-10-12T09:27:21.939Z,4992.00
2018-10-12T09:28:21.546Z,4948.00
2018-10-12T09:29:21.430Z,4916.00
2018-10-12T09:30:21.523Z,5140.00
2018-10-12T09:31:22.675Z,5020.00
2018-10-12T09:32:21.544Z,4760.00
2018-10-12T09:33:21.390Z,5156.00
2018-10-12T09:34:21.820Z,5176.00
2018-10-12T09:35:21.385Z,5244.00
2018-10-12T09:36:21.373Z,5312.00
2018-10-12T09:37:21.410Z,5244.00
2018-10-12T09:38:21.414Z,5372.00
2018-10-12T09:39:22.127Z,5408.00
2018-10-12T09:40:21.317Z,5440.00
2018-10-12T09:41:21.312Z,5404.00
2018-10-12T09:42:21.336Z,5416.00
2018-10-12T09:43:21.394Z,5464.00
2018-10-12T09:44:21.345Z,5476.00
2018-10-12T09:45:21.275Z,5508.00
2018-10-12T09:46:22.680Z,5468.00
2018-10-12T09:47:21.244Z,5404.00
2018-10-12T09:48:21.271Z,5416.00
2018-10-12T09:49:21.227Z,5416.00
2018-10-12T09:50:21.373Z,5472.00
2018-10-12T09:51:21.246Z,5496.00
2018-10-12T09:52:21.194Z,5468.00
2018-10-12T09:53:21.467Z,5516.00
2018-10-12T09:54:21.177Z,5548.00
2018-10-12T09:55:21.161Z,5636.00
2018-10-12T09:56:21.194Z,5744.00
2018-10-12T09:57:21.241Z,5840.00
2018-10-12T09:58:21.237Z,5880.00
2018-10-12T09:59:21.482Z,5796.00
2018-10-12T10:00:22.725Z,5596.00
2018-10-12T10:01:21.131Z,5448.00
2018-10-12T10:02:21.641Z,5524.00
2018-10-12T10:03:23.063Z,5464.00
2018-10-12T10:04:21.275Z,5500.00
2018-10-12T10:05:21.261Z,5536.00
2018-10-12T10:06:21.158Z,5468.00
2018-10-12T10:07:21.565Z,5420.00
2018-10-12T10:08:22.124Z,5532.00
2018-10-12T10:09:21.069Z,5488.00
2018-10-12T10:10:21.632Z,5576.00
2018-10-12T10:11:21.069Z,5584.00
2018-10-12T10:12:21.554Z,5548.00
2018-10-12T10:13:21.047Z,5608.00
2018-10-12T10:14:21.674Z,5556.00
2018-10-12T10:15:21.054Z,5476.00
2018-10-12T10:16:21.051Z,5576.00
2018-10-12T10:17:21.539Z,5596.00
2018-10-12T10:18:21.667Z,5536.00
2018-10-12T10:19:21.219Z,5528.00
2018-10-12T10:20:21.712Z,5540.00
2018-10-12T10:21:21.616Z,5548.00
2018-10-12T10:22:21.006Z,5608.00
2018-10-12T10:23:21.490Z,5576.00
2018-10-12T10:24:20.882Z,5616.00
2018-10-12T10:25:21.557Z,5692.00
2018-10-12T10:26:21.127Z,5752.00
2018-10-12T10:27:21.437Z,5848.00
2018-10-12T10:28:21.030Z,5948.00
2018-10-12T10:29:20.851Z,5976.00
2018-10-12T10:30:20.989Z,6028.00
2018-10-12T10:31:20.776Z,6044.00
2018-10-12T10:32:20.860Z,5996.00
2018-10-12T10:33:20.905Z,6036.00
2018-10-12T10:34:21.122Z,5988.00
2018-10-12T10:35:20.810Z,6016.00
2018-10-12T10:36:20.934Z,6100.00
2018-10-12T10:37:20.966Z,6060.00
2018-10-12T10:38:21.171Z,6100.00
2018-10-12T10:39:20.962Z,6088.00
2018-10-12T10:40:20.890Z,6016.00
2018-10-12T10:41:20.946Z,6144.00
2018-10-12T10:42:20.825Z,6240.00
2018-10-12T10:43:20.681Z,6372.00
2018-10-12T10:44:20.843Z,6496.00
2018-10-12T10:45:21.633Z,6428.00
2018-10-12T10:46:20.809Z,6464.00
2018-10-12T10:47:20.611Z,6580.00
2018-10-12T10:48:20.646Z,6644.00
2018-10-12T10:49:20.587Z,6816.00
2018-10-12T10:50:20.742Z,6960.00
2018-10-12T10:51:21.095Z,7468.00
2018-10-12T10:52:20.590Z,8476.00
2018-10-12T10:53:21.043Z,10112.00
2018-10-12T10:54:20.594Z,11360.00
2018-10-12T10:55:20.720Z,20608.00
2018-10-12T10:56:20.990Z,55552.00
2018-10-12T10:57:20.584Z,90496.00
2018-10-12T10:58:20.540Z,101568.00
2018-10-12T10:59:20.604Z,98080.00
2018-10-12T11:00:20.954Z,42016.00
2018-10-12T11:01:20.578Z,93088.00
2018-10-12T11:02:20.762Z,99040.00
2018-10-12T11:03:20.524Z,93088.00
2018-10-12T11:04:20.528Z,93440.00
2018-10-12T11:05:20.729Z,91744.00
2018-10-12T11:06:20.565Z,98304.00
2018-10-12T11:07:20.470Z,100128.00
2018-10-12T11:08:20.880Z,100352.00
2018-10-12T11:09:20.388Z,94720.00
2018-10-12T11:10:20.510Z,94208.00
2018-10-12T11:11:20.399Z,87872.00
2018-10-12T11:12:20.597Z,96608.00
2018-10-12T11:13:20.520Z,90016.00
2018-10-12T11:14:20.697Z,93472.00
2018-10-12T11:15:20.375Z,87008.00
2018-10-12T11:16:22.046Z,83008.00
2018-10-12T11:17:20.825Z,89472.00
2018-10-12T11:18:20.465Z,11492.00
2018-10-12T11:19:21.207Z,12592.00
2018-10-12T11:20:22.750Z,86176.00
2018-10-12T11:21:20.627Z,88768.00
2018-10-12T11:22:20.383Z,96832.00
2018-10-12T11:23:20.507Z,96096.00
2018-10-12T11:24:20.793Z,97984.00
2018-10-12T11:25:20.233Z,101856.00
2018-10-12T12:56:25.475Z,3760.00
2018-10-12T12:57:25.010Z,5632.00
2018-10-12T12:58:25.042Z,4668.00
2018-10-12T12:59:25.105Z,4136.00
2018-10-12T13:00:25.079Z,5364.00
2018-10-12T13:01:25.026Z,6580.00
2018-10-12T13:02:25.780Z,5804.00
2018-10-12T13:03:25.085Z,5932.00
2018-10-12T13:04:24.905Z,6988.00
2018-10-12T13:05:24.897Z,6584.00
2018-10-12T13:06:25.577Z,6440.00
2018-10-12T13:07:24.913Z,6480.00
2018-10-12T13:08:24.931Z,5212.00
2018-10-12T13:09:25.209Z,4932.00
2018-10-12T13:10:25.095Z,6176.00
2018-10-12T13:11:24.934Z,6632.00
2018-10-12T13:12:24.818Z,6528.00
2018-10-12T13:13:24.814Z,7408.00
2018-10-12T13:14:25.146Z,6732.00
2018-10-12T13:15:25.887Z,5072.00
2018-10-12T13:16:25.285Z,5904.00
2018-10-12T13:17:25.031Z,5872.00
2018-10-12T13:18:24.812Z,6192.00
2018-10-12T13:19:25.189Z,7416.00
2018-10-12T13:20:25.887Z,7292.00
2018-10-12T13:21:24.953Z,5828.00
2018-10-12T13:22:24.760Z,5184.00
2018-10-12T13:23:25.140Z,5708.00
2018-10-12T13:24:24.867Z,6164.00
2018-10-12T13:25:24.816Z,5548.00
2018-10-12T13:26:27.011Z,5260.00
2018-10-12T13:27:24.683Z,3992.00
2018-10-12T13:28:24.704Z,4652.00
2018-10-12T13:29:24.686Z,3984.00
2018-10-12T13:30:24.726Z,3960.00
2018-10-12T13:31:24.803Z,5076.00
2018-10-12T13:32:25.058Z,5412.00
2018-10-12T13:33:24.636Z,4768.00
2018-10-12T13:34:24.712Z,4564.00
2018-10-12T13:35:25.516Z,4892.00
2018-10-12T13:36:25.128Z,5324.00
2018-10-12T13:37:25.388Z,4872.00
2018-10-12T13:38:25.092Z,4972.00
2018-10-12T13:39:24.698Z,4944.00
2018-10-12T13:40:24.671Z,4460.00
2018-10-12T13:41:24.508Z,4232.00
2018-10-12T13:42:24.552Z,4148.00
2018-10-12T13:43:25.241Z,4420.00
2018-10-12T13:44:24.872Z,4576.00
2018-10-12T13:45:24.470Z,5092.00
2018-10-12T13:46:25.272Z,4936.00
2018-10-12T13:47:24.598Z,4280.00
2018-10-12T13:48:24.651Z,4204.00
2018-10-12T13:49:24.665Z,4324.00
2018-10-12T13:50:24.993Z,4048.00
2018-10-12T13:51:24.461Z,3936.00
2018-10-12T13:52:24.441Z,3256.00
2018-10-12T13:53:24.450Z,3520.00
2018-10-12T13:54:24.647Z,3544.00
2018-10-12T13:55:24.594Z,4076.00
2018-10-12T13:56:24.597Z,4232.00
2018-10-12T13:57:24.515Z,4432.00
2018-10-12T13:58:24.344Z,3980.00
2018-10-12T13:59:24.565Z,3824.00
2018-10-12T14:00:24.468Z,3836.00